Time;durP1;ratioP1;P1;durP2;ratioP2;P2;SDS_P1;SDS_P2;PMS_P1;PMS_P2;Temp;Humidity;BMP_temperature;BMP_pressure;BME280_temperature;BME280_humidity;BME280_pressure;Samples;Min_cycle;Max_cycle;Signal;HPM_P1;HPM_P2
2022/11/20 00:02:15;;;;;;;16.80;12.73;;;8.10;99.90;;;;;;4943581;28;20234;-67
2022/11/20 00:04:40;;;;;;;18.27;11.60;;;8.10;99.90;;;;;;4941688;28;20215;-68
2022/11/20 00:07:06;;;;;;;15.90;11.97;;;8.10;99.90;;;;;;4942761;28;20187;-68
2022/11/20 00:09:31;;;;;;;18.00;10.90;;;8.10;99.90;;;;;;5013774;28;20775;-68
2022/11/20 00:11:57;;;;;;;19.43;11.83;;;8.10;99.90;;;;;;4944714;28;20692;-68
2022/11/20 00:14:23;;;;;;;16.73;10.80;;;8.20;99.90;;;;;;4951604;28;20658;-68
2022/11/20 00:16:48;;;;;;;16.20;11.23;;;8.10;99.90;;;;;;4942575;28;20206;-68
2022/11/20 00:19:14;;;;;;;14.70;11.30;;;8.10;99.90;;;;;;4945096;28;20188;-68
2022/11/20 00:21:39;;;;;;;15.70;9.73;;;8.10;99.90;;;;;;4944657;28;20207;-69
2022/11/20 00:24:05;;;;;;;13.37;9.97;;;8.00;99.90;;;;;;4945299;28;20220;-68
2022/11/20 00:26:31;;;;;;;14.67;11.10;;;8.10;99.90;;;;;;4950468;28;20282;-68
2022/11/20 00:29:00;;;;;;;13.93;10.67;;;8.00;99.90;;;;;;4948083;28;20584;-69
2022/11/20 00:31:26;;;;;;;13.97;10.23;;;8.00;99.90;;;;;;4952261;28;20203;-68
2022/11/20 00:33:52;;;;;;;16.07;10.77;;;8.00;99.90;;;;;;4942623;28;20688;-68
2022/11/20 00:36:28;;;;;;;15.57;11.40;;;8.10;99.90;;;;;;4946570;28;20446;-68
2022/11/20 00:38:58;;;;;;;16.30;11.80;;;8.10;99.90;;;;;;4944004;28;20438;-68
2022/11/20 00:41:25;;;;;;;15.50;11.13;;;8.00;99.90;;;;;;4943140;28;20454;-68
2022/11/20 00:43:55;;;;;;;16.47;10.93;;;8.00;99.90;;;;;;4943351;28;20442;-68
2022/11/20 00:46:26;;;;;;;15.47;11.13;;;8.00;99.90;;;;;;4942355;28;20457;-68
2022/11/20 00:48:52;;;;;;;16.33;11.23;;;8.00;99.90;;;;;;5004178;28;20435;-68
2022/11/20 00:51:20;;;;;;;14.63;10.90;;;8.10;99.90;;;;;;4941774;28;20761;-68
2022/11/20 00:53:46;;;;;;;16.07;11.00;;;8.10;99.90;;;;;;4945278;28;20189;-68
2022/11/20 00:56:14;;;;;;;13.77;10.50;;;8.10;99.90;;;;;;4954311;28;20426;-68
2022/11/20 00:58:42;;;;;;;14.67;9.83;;;8.10;99.90;;;;;;4953562;28;20439;-68
2022/11/20 01:01:30;;;;;;;12.13;9.20;;;8.20;99.90;;;;;;4955461;28;20473;-68
2022/11/20 01:03:58;;;;;;;15.30;10.50;;;8.20;99.90;;;;;;4940173;28;20404;-68
2022/11/20 01:06:33;;;;;;;15.00;11.00;;;8.20;99.90;;;;;;4943138;28;20995;-68
2022/11/20 01:09:01;;;;;;;14.20;10.00;;;8.20;99.90;;;;;;4943540;28;20422;-69
2022/11/20 01:11:29;;;;;;;13.53;10.13;;;8.20;99.90;;;;;;4944600;28;20522;-66
2022/11/20 01:13:56;;;;;;;13.50;10.60;;;8.20;99.90;;;;;;4946909;28;20431;-68
2022/11/20 01:16:25;;;;;;;15.00;10.43;;;8.20;99.90;;;;;;4942174;28;20964;-69
2022/11/20 01:18:53;;;;;;;12.33;9.87;;;8.20;99.90;;;;;;4941452;28;20518;-67
2022/11/20 01:21:24;;;;;;;12.27;9.77;;;8.20;99.90;;;;;;4944063;28;20458;-68
2022/11/20 01:23:51;;;;;;;14.33;10.77;;;8.20;99.90;;;;;;4944762;28;20483;-67
2022/11/20 01:26:25;;;;;;;15.33;11.43;;;8.20;99.90;;;;;;4950435;28;20418;-66
2022/11/20 01:28:51;;;;;;;15.83;10.53;;;8.20;99.90;;;;;;5000574;28;20828;-67
2022/11/20 01:31:18;;;;;;;13.97;11.50;;;8.20;99.90;;;;;;4956777;28;20458;-67
2022/11/20 01:33:44;;;;;;;13.43;10.67;;;8.20;99.90;;;;;;4941393;28;20245;-67
2022/11/20 01:36:11;;;;;;;12.37;9.73;;;8.20;99.90;;;;;;4943244;28;20427;-67
2022/11/20 01:38:37;;;;;;;12.63;9.83;;;8.10;99.90;;;;;;4941920;28;20438;-67
2022/11/20 01:41:03;;;;;;;15.70;9.97;;;8.10;99.90;;;;;;4940752;28;20943;-67
2022/11/20 01:43:29;;;;;;;14.90;10.30;;;8.10;99.90;;;;;;4947504;28;20271;-67
2022/11/20 01:46:00;;;;;;;15.20;9.70;;;8.20;99.90;;;;;;4940872;28;20869;-67
2022/11/20 01:48:41;;;;;;;13.63;10.07;;;8.20;99.90;;;;;;4942432;28;20203;-67
2022/11/20 01:51:16;;;;;;;14.07;10.97;;;8.20;99.90;;;;;;4943353;28;20985;-68
2022/11/20 01:53:42;;;;;;;13.13;9.03;;;8.20;99.90;;;;;;4940470;28;20423;-67
2022/11/20 01:56:10;;;;;;;12.80;10.07;;;8.20;99.90;;;;;;4946679;28;20496;-68
2022/11/20 01:58:42;;;;;;;12.03;9.03;;;8.30;99.90;;;;;;4950806;28;20187;-68
2022/11/20 02:01:07;;;;;;;12.00;9.20;;;8.30;99.90;;;;;;4952748;28;20570;-68
2022/11/20 02:03:33;;;;;;;11.03;8.80;;;8.30;99.90;;;;;;4958143;28;20741;-68
2022/11/20 02:06:19;;;;;;;15.80;9.00;;;8.40;99.90;;;;;;4950272;28;20215;-67
2022/11/20 02:08:45;;;;;;;9.83;8.40;;;8.30;99.90;;;;;;4943616;28;20191;-67
2022/11/20 02:11:12;;;;;;;12.20;9.87;;;8.30;99.90;;;;;;4949072;28;20795;-68
2022/11/20 02:13:44;;;;;;;11.80;9.23;;;8.40;99.90;;;;;;4945044;28;20191;-67
2022/11/20 02:16:32;;;;;;;10.27;8.40;;;8.40;99.90;;;;;;4949745;28;20439;-68
2022/11/20 02:19:00;;;;;;;12.53;9.00;;;8.40;99.90;;;;;;4946202;28;20422;-67
2022/11/20 02:21:34;;;;;;;12.97;9.13;;;8.50;99.90;;;;;;4953853;28;20454;-68
2022/11/20 02:24:02;;;;;;;9.73;7.37;;;8.50;99.90;;;;;;4945203;28;20481;-67
2022/11/20 02:26:30;;;;;;;11.70;8.60;;;8.60;99.90;;;;;;4948609;28;20431;-67
2022/11/20 02:28:56;;;;;;;10.30;8.10;;;8.60;99.90;;;;;;4949201;28;20442;-67
2022/11/20 02:31:22;;;;;;;13.73;7.90;;;8.70;99.90;;;;;;4956056;28;20867;-67
2022/11/20 02:33:47;;;;;;;10.20;7.03;;;8.60;99.90;;;;;;4952696;28;20870;-67
2022/11/20 02:36:15;;;;;;;8.47;6.90;;;8.70;99.90;;;;;;4955299;28;20186;-67
2022/11/20 02:38:42;;;;;;;13.33;11.03;;;8.70;99.90;;;;;;4953113;28;20299;-67
2022/11/20 02:41:08;;;;;;;10.00;8.10;;;8.80;99.90;;;;;;4946579;28;20459;-67
2022/11/20 02:43:33;;;;;;;10.47;6.93;;;8.80;99.90;;;;;;4949336;28;20844;-67
2022/11/20 02:45:59;;;;;;;8.60;7.33;;;8.80;99.90;;;;;;4952751;28;20289;-67
2022/11/20 02:48:25;;;;;;;8.87;6.87;;;8.80;99.90;;;;;;4958776;28;20233;-67
2022/11/20 02:50:50;;;;;;;9.17;6.50;;;8.90;99.90;;;;;;4945306;28;20261;-67
2022/11/20 02:53:16;;;;;;;12.50;7.23;;;8.90;99.90;;;;;;4951317;28;20183;-67
2022/11/20 02:55:41;;;;;;;8.20;6.63;;;8.90;99.90;;;;;;4945227;28;20452;-67
2022/11/20 02:58:07;;;;;;;10.10;7.80;;;8.90;99.90;;;;;;4951680;28;20195;-67
2022/11/20 03:00:33;;;;;;;13.00;7.13;;;8.80;99.90;;;;;;4946555;28;20215;-67
2022/11/20 03:02:59;;;;;;;9.17;7.57;;;8.70;99.90;;;;;;4958889;28;20191;-67
2022/11/20 03:05:24;;;;;;;7.63;6.10;;;8.70;99.90;;;;;;4948996;28;20475;-68
2022/11/20 03:07:50;;;;;;;10.47;7.30;;;8.80;99.90;;;;;;4960385;28;20183;-67
2022/11/20 03:10:15;;;;;;;9.80;6.90;;;8.80;99.90;;;;;;4948924;28;20180;-68
2022/11/20 03:12:41;;;;;;;9.33;6.83;;;8.80;99.90;;;;;;4944597;28;20191;-67
2022/11/20 03:15:07;;;;;;;8.70;6.20;;;8.90;99.90;;;;;;4942986;28;20187;-67
2022/11/20 03:17:32;;;;;;;7.70;6.23;;;8.90;99.90;;;;;;5015763;28;20656;-67
2022/11/20 03:19:58;;;;;;;6.30;5.30;;;8.90;99.90;;;;;;4944806;28;20493;-67
2022/11/20 03:22:24;;;;;;;12.67;7.17;;;8.90;99.90;;;;;;4946588;28;20242;-67
2022/11/20 03:24:49;;;;;;;10.17;7.20;;;9.00;99.90;;;;;;4943567;28;20681;-68
2022/11/20 03:27:15;;;;;;;8.70;6.53;;;9.00;99.90;;;;;;4948278;28;20191;-67
2022/11/20 03:29:40;;;;;;;8.30;6.10;;;8.90;99.90;;;;;;5008076;28;20195;-66
2022/11/20 03:32:06;;;;;;;6.10;5.30;;;9.00;99.90;;;;;;4955260;28;20199;-69
2022/11/20 03:34:31;;;;;;;7.60;6.00;;;9.00;99.90;;;;;;4946969;28;20203;-68
2022/11/20 03:36:57;;;;;;;8.33;5.97;;;8.90;99.90;;;;;;4946103;28;20257;-68
2022/11/20 03:39:22;;;;;;;7.50;6.37;;;8.90;99.90;;;;;;4945477;28;20187;-68
2022/11/20 03:41:48;;;;;;;6.90;6.20;;;9.00;99.90;;;;;;4944108;28;20207;-68
2022/11/20 03:44:13;;;;;;;9.90;6.27;;;8.90;99.90;;;;;;4945591;28;20217;-67
2022/11/20 03:46:39;;;;;;;8.50;6.20;;;8.80;99.90;;;;;;4939799;28;20262;-68
2022/11/20 03:49:05;;;;;;;7.47;5.83;;;8.80;99.90;;;;;;4942215;28;20278;-68
2022/11/20 03:51:32;;;;;;;8.00;6.23;;;8.80;99.90;;;;;;4950701;28;20214;-68
2022/11/20 03:54:00;;;;;;;8.80;5.77;;;8.80;99.90;;;;;;4952583;28;20179;-68
2022/11/20 03:56:28;;;;;;;6.60;5.60;;;8.90;99.90;;;;;;4955625;28;20434;-68
2022/11/20 03:58:55;;;;;;;6.60;4.87;;;8.80;99.90;;;;;;4940691;28;20431;-68
2022/11/20 04:01:30;;;;;;;7.43;5.17;;;8.80;99.90;;;;;;4955309;28;21425;-68
2022/11/20 04:03:56;;;;;;;6.80;6.00;;;8.80;99.90;;;;;;4950901;28;20429;-68
2022/11/20 04:06:25;;;;;;;6.50;5.70;;;8.80;99.90;;;;;;4955032;28;20431;-68
2022/11/20 04:08:51;;;;;;;7.20;5.30;;;8.80;99.90;;;;;;4954519;28;20446;-68
2022/11/20 04:11:25;;;;;;;9.60;5.70;;;8.80;99.90;;;;;;4951449;28;20835;-67
2022/11/20 04:13:56;;;;;;;7.50;5.50;;;8.80;99.90;;;;;;4952618;28;20265;-67
2022/11/20 04:16:22;;;;;;;9.07;5.50;;;8.80;99.90;;;;;;4946104;28;20916;-68
2022/11/20 04:18:55;;;;;;;8.30;5.47;;;8.80;99.90;;;;;;4952748;28;20475;-68
2022/11/20 04:21:21;;;;;;;10.10;5.40;;;8.70;99.90;;;;;;4942254;28;20453;-68
2022/11/20 04:23:47;;;;;;;7.97;5.93;;;8.70;99.90;;;;;;4943127;28;20442;-68
2022/11/20 04:26:13;;;;;;;5.73;5.13;;;8.80;99.90;;;;;;4941922;28;20450;-68
2022/11/20 04:28:39;;;;;;;6.50;4.93;;;8.80;99.90;;;;;;4945708;28;20813;-68
2022/11/20 04:31:13;;;;;;;6.50;5.23;;;8.80;99.90;;;;;;4949397;28;20200;-68
2022/11/20 04:33:39;;;;;;;7.47;5.60;;;8.80;99.90;;;;;;4948889;28;20813;-68
2022/11/20 04:36:14;;;;;;;7.70;5.60;;;8.80;99.90;;;;;;4943023;28;20451;-68
2022/11/20 04:38:40;;;;;;;5.83;5.13;;;8.90;99.90;;;;;;5006410;28;20967;-68
2022/11/20 04:41:07;;;;;;;6.60;5.70;;;8.90;99.90;;;;;;4949929;28;20454;-68
2022/11/20 04:43:34;;;;;;;6.53;5.10;;;8.80;99.90;;;;;;4949813;28;20526;-69
2022/11/20 04:46:00;;;;;;;6.90;5.47;;;8.90;99.90;;;;;;4952428;28;20470;-68
2022/11/20 04:48:27;;;;;;;8.67;5.70;;;8.90;99.90;;;;;;4943761;28;20438;-67
2022/11/20 04:50:53;;;;;;;8.67;5.43;;;8.90;99.90;;;;;;4945699;28;20817;-67
2022/11/20 04:53:19;;;;;;;8.27;5.60;;;8.90;99.90;;;;;;4942236;28;20431;-68
2022/11/20 04:55:44;;;;;;;7.20;5.80;;;8.90;99.90;;;;;;5009268;28;20286;-67
2022/11/20 04:58:10;;;;;;;7.43;6.00;;;8.90;99.90;;;;;;4943443;28;20264;-68
2022/11/20 05:00:36;;;;;;;13.60;5.50;;;8.90;99.90;;;;;;4944127;28;20442;-67
2022/11/20 05:03:01;;;;;;;7.30;5.37;;;8.90;99.90;;;;;;4942548;28;20222;-68
2022/11/20 05:05:27;;;;;;;8.93;6.00;;;8.90;99.90;;;;;;4942177;28;20207;-68
2022/11/20 05:07:52;;;;;;;8.07;5.60;;;9.00;99.90;;;;;;4945333;28;20175;-68
2022/11/20 05:10:18;;;;;;;7.70;5.50;;;9.00;99.90;;;;;;4943275;28;20187;-68
2022/11/20 05:12:44;;;;;;;5.80;5.07;;;9.00;99.90;;;;;;4939024;28;20186;-68
2022/11/20 05:15:09;;;;;;;6.30;5.17;;;9.00;99.90;;;;;;4942791;28;20282;-68
2022/11/20 05:17:35;;;;;;;8.90;6.10;;;9.00;99.90;;;;;;4941976;28;20307;-67
2022/11/20 05:20:00;;;;;;;8.23;5.03;;;8.90;99.90;;;;;;4941716;28;20419;-68
2022/11/20 05:22:26;;;;;;;6.70;4.83;;;8.90;99.90;;;;;;4948756;28;20248;-67
2022/11/20 05:24:51;;;;;;;8.60;5.13;;;8.80;99.90;;;;;;4945710;28;20707;-68
2022/11/20 05:27:18;;;;;;;10.87;6.00;;;8.80;99.90;;;;;;4951333;28;20521;-68
2022/11/20 05:29:43;;;;;;;8.20;5.07;;;8.80;99.90;;;;;;4951472;28;20199;-68
2022/11/20 05:32:09;;;;;;;8.57;7.10;;;8.80;99.90;;;;;;4951356;28;20852;-68
2022/11/20 05:34:36;;;;;;;7.67;6.30;;;8.90;99.90;;;;;;4952981;28;20237;-68
2022/11/20 05:37:02;;;;;;;6.70;5.07;;;8.90;99.90;;;;;;4961691;28;20431;-68
2022/11/20 05:39:28;;;;;;;5.60;4.20;;;8.90;99.90;;;;;;4955455;28;20453;-68
2022/11/20 05:44:38;;;;;;;6.30;5.10;;;8.90;99.90;;;;;;4958347;28;20814;-68
2022/11/20 05:47:03;;;;;;;5.80;4.40;;;8.90;99.90;;;;;;4950157;28;20434;-67
2022/11/20 05:49:29;;;;;;;9.03;5.40;;;8.80;99.90;;;;;;4951052;28;20270;-67
2022/11/20 05:51:55;;;;;;;5.87;4.40;;;8.80;99.90;;;;;;4948057;28;20683;-67
2022/11/20 05:54:20;;;;;;;6.80;4.47;;;8.90;99.90;;;;;;4965342;28;20645;-67
2022/11/20 05:56:46;;;;;;;6.00;4.23;;;8.90;99.90;;;;;;4949595;28;20566;-67
2022/11/20 05:59:11;;;;;;;6.10;4.80;;;8.80;99.90;;;;;;5011960;28;20187;-67
2022/11/20 06:01:37;;;;;;;5.50;4.40;;;8.80;99.90;;;;;;4948482;28;20229;-66
2022/11/20 06:04:02;;;;;;;7.97;4.63;;;8.80;99.90;;;;;;4954006;28;20187;-67
2022/11/20 06:06:28;;;;;;;5.00;3.97;;;8.80;99.90;;;;;;4953745;28;20189;-66
2022/11/20 06:08:55;;;;;;;5.13;4.17;;;8.80;99.90;;;;;;4960366;28;20187;-66
2022/11/20 06:11:21;;;;;;;8.60;4.73;;;8.80;99.90;;;;;;4945650;28;20203;-67
2022/11/20 06:13:47;;;;;;;5.43;3.83;;;8.80;99.90;;;;;;4961783;28;20423;-67
2022/11/20 06:16:15;;;;;;;5.97;4.10;;;8.80;99.90;;;;;;4952231;28;20538;-67
2022/11/20 06:18:41;;;;;;;6.43;3.80;;;8.80;99.90;;;;;;4944187;28;20481;-66
2022/11/20 06:21:12;;;;;;;3.77;3.37;;;8.80;99.90;;;;;;4946886;28;20490;-67
2022/11/20 06:23:38;;;;;;;8.30;4.57;;;8.80;99.90;;;;;;4944392;28;20448;-67
2022/11/20 06:26:09;;;;;;;5.07;3.50;;;8.90;99.90;;;;;;4944712;28;20865;-67
2022/11/20 06:28:35;;;;;;;5.87;3.70;;;8.90;99.90;;;;;;4955867;28;20442;-67
2022/11/20 06:31:00;;;;;;;4.80;3.53;;;8.90;99.90;;;;;;4946070;28;20509;-67
2022/11/20 06:33:26;;;;;;;5.93;4.07;;;8.80;99.90;;;;;;4955570;28;20434;-68
2022/11/20 06:35:52;;;;;;;5.50;4.87;;;8.80;99.90;;;;;;4949231;28;20195;-67
2022/11/20 06:38:17;;;;;;;5.80;3.90;;;8.90;99.90;;;;;;4951731;28;20192;-67
2022/11/20 06:40:43;;;;;;;6.30;4.20;;;8.80;99.90;;;;;;4948404;28;20218;-67
2022/11/20 06:43:12;;;;;;;4.50;3.57;;;8.80;99.90;;;;;;4952843;28;20183;-67
2022/11/20 06:45:37;;;;;;;5.23;4.10;;;8.70;99.90;;;;;;4944530;28;20759;-67
2022/11/20 06:48:04;;;;;;;4.73;4.20;;;8.80;99.90;;;;;;4955791;28;20522;-67
2022/11/20 06:50:29;;;;;;;5.17;3.83;;;8.80;99.90;;;;;;4944041;28;20226;-67
2022/11/20 06:52:55;;;;;;;5.07;3.67;;;8.80;99.90;;;;;;4958370;28;20427;-67
2022/11/20 06:55:20;;;;;;;4.90;4.00;;;8.80;99.90;;;;;;4951015;28;20492;-67
2022/11/20 06:57:46;;;;;;;5.17;4.33;;;8.80;99.90;;;;;;4957171;28;20612;-67
2022/11/20 07:00:12;;;;;;;5.87;3.77;;;8.70;99.90;;;;;;4953090;28;20197;-67
2022/11/20 07:02:37;;;;;;;5.13;4.20;;;8.70;99.90;;;;;;4944693;28;20661;-67
2022/11/20 07:05:03;;;;;;;4.27;3.60;;;8.70;99.90;;;;;;4955577;28;20485;-67
2022/11/20 07:07:29;;;;;;;5.23;3.90;;;8.70;99.90;;;;;;4942789;28;20680;-67
2022/11/20 07:09:54;;;;;;;4.70;3.60;;;8.80;99.90;;;;;;4947625;28;20245;-66
2022/11/20 07:12:20;;;;;;;4.40;3.53;;;8.80;99.90;;;;;;4948047;28;20560;-66
2022/11/20 07:14:45;;;;;;;4.83;3.73;;;8.80;99.90;;;;;;4947242;28;20769;-66
2022/11/20 07:17:11;;;;;;;4.13;3.60;;;8.80;99.90;;;;;;4948493;28;20191;-67
2022/11/20 07:19:37;;;;;;;4.73;4.03;;;8.80;99.90;;;;;;4944706;28;20179;-67
2022/11/20 07:22:03;;;;;;;4.90;4.00;;;8.80;99.90;;;;;;4948250;28;20590;-67
2022/11/20 07:24:28;;;;;;;5.87;3.90;;;8.80;99.90;;;;;;4992105;28;20247;-66
2022/11/20 07:26:54;;;;;;;6.10;3.77;;;8.70;99.90;;;;;;4942265;28;20536;-68
2022/11/20 07:29:19;;;;;;;4.60;3.60;;;8.70;99.90;;;;;;4945238;28;20697;-67
2022/11/20 07:31:45;;;;;;;6.43;4.30;;;8.70;99.90;;;;;;4948719;28;20669;-67
2022/11/20 07:34:10;;;;;;;3.87;3.37;;;8.80;99.90;;;;;;4944956;28;20187;-66
2022/11/20 07:36:36;;;;;;;8.60;5.40;;;8.80;99.90;;;;;;4952394;28;20539;-66
2022/11/20 07:39:02;;;;;;;4.87;3.83;;;8.80;99.90;;;;;;4945901;28;20984;-66
2022/11/20 07:41:28;;;;;;;5.10;4.00;;;8.80;99.90;;;;;;4949984;28;20820;-67
2022/11/20 07:43:54;;;;;;;3.97;3.43;;;8.80;99.90;;;;;;4950967;28;20447;-67
2022/11/20 07:46:19;;;;;;;4.37;3.80;;;8.80;99.90;;;;;;4949381;28;20435;-67
2022/11/20 07:48:45;;;;;;;7.50;4.30;;;8.90;99.90;;;;;;4943865;28;20171;-67
2022/11/20 07:51:11;;;;;;;5.20;3.20;;;8.90;99.90;;;;;;4944001;28;20235;-67
2022/11/20 07:53:36;;;;;;;4.83;3.90;;;8.90;99.90;;;;;;4944753;28;20187;-68
2022/11/20 07:56:02;;;;;;;5.70;3.83;;;8.90;99.90;;;;;;4945637;28;20548;-67
2022/11/20 07:58:34;;;;;;;5.20;4.00;;;8.90;99.90;;;;;;4942878;28;20199;-67
2022/11/20 08:01:04;;;;;;;7.43;4.80;;;8.90;99.90;;;;;;4945723;28;20504;-67
2022/11/20 08:03:30;;;;;;;6.63;4.53;;;8.80;99.90;;;;;;4941382;28;20451;-67
2022/11/20 08:06:00;;;;;;;6.10;4.37;;;8.80;99.90;;;;;;4947112;28;20462;-67
2022/11/20 08:08:25;;;;;;;6.37;4.53;;;8.70;99.90;;;;;;4942553;28;20270;-67
2022/11/20 08:10:51;;;;;;;4.90;3.90;;;8.70;99.90;;;;;;4950426;28;20541;-67
2022/11/20 08:16:01;;;;;;;6.57;4.70;;;8.70;99.90;;;;;;4947230;28;20348;-67
2022/11/20 08:18:26;;;;;;;6.33;4.23;;;8.70;99.90;;;;;;4945469;28;20535;-67
2022/11/20 08:20:52;;;;;;;4.63;3.77;;;8.60;99.90;;;;;;5008286;28;20233;-67
2022/11/20 08:23:17;;;;;;;5.53;4.10;;;8.70;99.90;;;;;;4943947;28;20581;-67
2022/11/20 08:25:43;;;;;;;4.70;4.20;;;8.70;99.90;;;;;;4946313;28;20579;-67
2022/11/20 08:28:09;;;;;;;5.73;4.40;;;8.70;99.90;;;;;;4949004;28;20279;-66
2022/11/20 08:30:36;;;;;;;7.43;4.60;;;8.70;99.90;;;;;;4950312;28;20741;-67
2022/11/20 08:33:08;;;;;;;5.70;4.23;;;8.70;99.90;;;;;;4944236;28;21093;-67
2022/11/20 08:35:38;;;;;;;7.60;5.00;;;8.60;99.90;;;;;;4944715;28;20509;-66
2022/11/20 08:38:04;;;;;;;6.30;4.53;;;8.70;99.90;;;;;;4943311;28;20779;-69
2022/11/20 08:40:31;;;;;;;5.13;3.97;;;8.70;99.90;;;;;;4949973;28;20867;-66
2022/11/20 08:42:57;;;;;;;5.40;4.30;;;8.80;99.90;;;;;;4952332;28;20431;-66
2022/11/20 08:45:22;;;;;;;4.93;3.67;;;8.80;99.90;;;;;;4942702;28;20460;-66
2022/11/20 08:47:48;;;;;;;5.57;4.60;;;8.80;99.90;;;;;;4949658;28;20199;-66
2022/11/20 08:50:16;;;;;;;5.00;4.50;;;8.80;99.90;;;;;;5006147;28;20580;-67
2022/11/20 08:52:42;;;;;;;6.13;4.50;;;8.80;99.90;;;;;;5008588;28;20944;-67
2022/11/20 08:55:08;;;;;;;5.73;3.60;;;8.80;99.90;;;;;;4944727;28;20427;-67
2022/11/20 08:57:35;;;;;;;8.30;4.37;;;8.80;99.90;;;;;;4946237;28;20446;-68
2022/11/20 09:00:02;;;;;;;6.07;3.80;;;8.90;99.90;;;;;;4951480;28;20938;-67
2022/11/20 09:02:28;;;;;;;5.13;4.43;;;8.90;99.90;;;;;;4944671;28;20447;-67
2022/11/20 09:04:53;;;;;;;6.30;3.97;;;8.90;99.90;;;;;;4952217;28;20603;-67
2022/11/20 09:07:19;;;;;;;4.80;4.10;;;8.90;99.90;;;;;;4945657;28;20187;-66
2022/11/20 09:09:45;;;;;;;4.30;3.77;;;9.00;99.90;;;;;;4951893;28;20175;-67
2022/11/20 09:12:11;;;;;;;10.07;4.53;;;8.90;99.90;;;;;;4954990;28;20450;-67
2022/11/20 09:14:36;;;;;;;5.73;4.20;;;9.00;99.90;;;;;;4959414;28;20555;-68
2022/11/20 09:17:02;;;;;;;7.00;4.87;;;9.00;99.90;;;;;;4954020;28;20213;-67
2022/11/20 09:19:27;;;;;;;4.53;3.83;;;9.00;99.90;;;;;;4946585;28;20248;-66
2022/11/20 09:21:53;;;;;;;4.70;4.20;;;9.00;99.90;;;;;;4956382;28;20658;-67
2022/11/20 09:24:20;;;;;;;4.83;4.03;;;9.00;99.90;;;;;;4946597;28;20268;-67
2022/11/20 09:26:46;;;;;;;7.30;4.33;;;9.00;99.90;;;;;;4944116;28;20423;-67
2022/11/20 09:29:11;;;;;;;7.40;4.43;;;9.00;99.90;;;;;;4945458;28;20476;-68
2022/11/20 09:31:37;;;;;;;4.30;3.80;;;9.10;99.90;;;;;;4943553;28;20253;-67
2022/11/20 09:34:02;;;;;;;6.00;3.60;;;9.10;99.90;;;;;;4943976;28;20183;-68
2022/11/20 09:36:28;;;;;;;7.10;4.40;;;9.10;99.90;;;;;;4948223;28;20211;-67
2022/11/20 09:38:54;;;;;;;5.40;3.83;;;9.00;99.90;;;;;;4951345;28;20198;-68
2022/11/20 09:41:31;;;;;;;7.73;4.90;;;9.00;99.90;;;;;;4953218;28;20534;-68
2022/11/20 09:44:31;;;;;;;7.93;4.47;;;9.00;99.90;;;;;;4947608;28;20229;-68
2022/11/20 09:47:30;;;;;;;6.90;4.70;;;9.00;99.90;;;;;;5007703;28;20446;-68
2022/11/20 09:50:23;;;;;;;4.93;4.17;;;9.00;99.90;;;;;;4945306;28;20423;-68
2022/11/20 09:52:54;;;;;;;8.20;4.40;;;9.00;99.90;;;;;;4947388;28;20455;-68
2022/11/20 09:55:21;;;;;;;8.33;4.80;;;9.00;99.90;;;;;;4956905;28;20797;-68
2022/11/20 09:57:50;;;;;;;7.43;5.03;;;8.90;99.90;;;;;;4955390;28;20487;-67
2022/11/20 10:00:16;;;;;;;4.93;4.43;;;8.90;99.90;;;;;;4943594;28;20530;-67
2022/11/20 10:03:00;;;;;;;6.13;4.50;;;8.90;99.90;;;;;;4956643;28;20430;-67
2022/11/20 10:05:31;;;;;;;6.00;4.57;;;9.00;99.90;;;;;;4951698;28;20718;-68
2022/11/20 10:08:25;;;;;;;6.63;5.27;;;9.10;99.90;;;;;;4945053;28;20772;-67
2022/11/20 10:11:00;;;;;;;5.63;5.00;;;9.10;99.90;;;;;;4959163;28;20507;-67
2022/11/20 10:13:31;;;;;;;6.13;4.70;;;9.10;99.90;;;;;;4949042;28;20445;-67
2022/11/20 10:16:23;;;;;;;9.33;4.73;;;9.00;99.90;;;;;;4945887;28;20477;-67
2022/11/20 10:19:08;;;;;;;8.13;4.87;;;9.10;99.90;;;;;;4943752;28;20434;-68
2022/11/20 10:21:55;;;;;;;7.07;4.60;;;9.10;99.90;;;;;;4942428;28;20936;-68
2022/11/20 10:24:39;;;;;;;7.40;4.47;;;9.20;99.90;;;;;;4944605;28;20466;-69
2022/11/20 10:27:42;;;;;;;5.53;4.93;;;9.30;99.90;;;;;;4946102;28;20419;-69
2022/11/20 10:30:09;;;;;;;6.00;4.47;;;9.40;99.90;;;;;;4951884;28;20516;-68
2022/11/20 10:32:46;;;;;;;5.23;4.30;;;9.40;99.90;;;;;;4945007;28;20435;-68
2022/11/20 10:35:35;;;;;;;5.03;4.43;;;9.40;99.90;;;;;;4958859;28;20966;-68
2022/11/20 10:38:10;;;;;;;8.20;4.67;;;9.50;99.90;;;;;;4956844;28;20414;-68
2022/11/20 10:40:41;;;;;;;7.20;5.00;;;9.40;99.90;;;;;;4943557;28;20457;-68
2022/11/20 10:43:17;;;;;;;7.67;4.63;;;9.50;99.90;;;;;;5013638;28;20488;-68
2022/11/20 10:45:58;;;;;;;5.60;4.00;;;9.50;99.90;;;;;;5018043;28;20485;-68
2022/11/20 10:48:26;;;;;;;7.47;4.90;;;9.50;99.90;;;;;;4950598;28;20481;-68
2022/11/20 10:51:30;;;;;;;5.00;4.50;;;9.60;99.90;;;;;;4944744;28;20446;-68
2022/11/20 10:54:14;;;;;;;5.80;4.97;;;9.60;99.90;;;;;;4949828;28;20480;-68
2022/11/20 10:56:47;;;;;;;5.57;4.57;;;9.60;99.90;;;;;;4940779;28;20482;-67
2022/11/20 10:59:37;;;;;;;5.73;3.97;;;9.70;99.90;;;;;;4954066;28;20430;-67
2022/11/20 11:02:20;;;;;;;5.20;3.90;;;9.70;99.90;;;;;;4945041;28;20462;-70
2022/11/20 11:04:48;;;;;;;5.43;4.10;;;9.80;99.90;;;;;;5015938;28;20474;-67
2022/11/20 11:07:25;;;;;;;6.87;4.50;;;9.80;99.90;;;;;;4952759;28;20425;-67
2022/11/20 11:09:55;;;;;;;8.67;4.40;;;9.90;99.90;;;;;;4957525;28;20426;-68
2022/11/20 11:12:24;;;;;;;4.97;4.33;;;10.00;99.90;;;;;;4950180;28;20434;-67
2022/11/20 11:14:51;;;;;;;4.10;3.13;;;10.10;99.90;;;;;;5011418;28;20540;-67
2022/11/20 11:17:32;;;;;;;5.30;4.00;;;10.20;99.90;;;;;;4959248;28;20438;-67
2022/11/20 11:20:14;;;;;;;7.60;3.63;;;10.30;99.90;;;;;;5006489;28;20469;-67
2022/11/20 11:22:52;;;;;;;5.50;2.83;;;10.30;99.90;;;;;;4954187;28;20431;-67
2022/11/20 11:25:28;;;;;;;4.70;3.13;;;10.30;99.90;;;;;;4960702;28;20463;-68
2022/11/20 11:27:56;;;;;;;6.43;3.80;;;10.30;99.90;;;;;;4953798;28;20562;-67
2022/11/20 11:30:29;;;;;;;7.00;3.20;;;10.30;99.90;;;;;;4951525;28;20836;-67
2022/11/20 11:33:30;;;;;;;7.00;2.77;;;10.30;99.90;;;;;;4942483;28;20521;-67
2022/11/20 11:35:59;;;;;;;4.53;3.27;;;10.40;99.90;;;;;;4944300;28;20449;-67
2022/11/20 11:38:41;;;;;;;7.07;4.03;;;10.40;99.90;;;;;;4943717;28;20458;-67
2022/11/20 11:41:12;;;;;;;6.97;3.37;;;10.40;99.90;;;;;;4944106;28;20470;-67
2022/11/20 11:46:35;;;;;;;5.47;3.33;;;10.60;99.90;;;;;;4943217;28;20501;-67
2022/11/20 11:49:03;;;;;;;7.13;3.57;;;10.60;99.90;;;;;;4943392;28;20917;-67
2022/11/20 11:51:39;;;;;;;4.37;2.50;;;10.60;99.90;;;;;;4944753;28;20462;-69
2022/11/20 11:54:18;;;;;;;6.37;3.27;;;10.60;99.90;;;;;;4943593;28;20465;-67
2022/11/20 11:56:44;;;;;;;5.87;3.67;;;10.60;99.90;;;;;;4951106;28;20493;-68
2022/11/20 11:59:17;;;;;;;9.30;3.30;;;10.60;99.90;;;;;;4952212;28;20415;-68
2022/11/20 12:01:45;;;;;;;5.47;3.20;;;10.50;99.90;;;;;;5004665;28;20450;-68
2022/11/20 12:04:46;;;;;;;3.77;2.80;;;10.80;99.90;;;;;;4952652;28;20753;-68
2022/11/20 12:07:39;;;;;;;3.90;2.93;;;11.70;99.90;;;;;;4949868;28;20971;-67
2022/11/20 12:10:12;;;;;;;6.93;3.00;;;12.70;99.90;;;;;;4949656;28;20419;-67
2022/11/20 12:12:44;;;;;;;4.13;2.70;;;13.40;99.90;;;;;;4953202;28;20492;-67
2022/11/20 12:15:12;;;;;;;3.30;2.37;;;14.40;99.90;;;;;;4945617;28;20504;-66
2022/11/20 12:17:38;;;;;;;5.17;2.40;;;15.00;99.90;;;;;;4948875;28;20448;-67
2022/11/20 12:20:12;;;;;;;4.93;2.50;;;14.90;99.90;;;;;;4948685;28;20809;-68
2022/11/20 12:23:02;;;;;;;7.33;2.73;;;15.50;99.90;;;;;;4950115;28;20522;-68
2022/11/20 12:25:35;;;;;;;4.40;2.27;;;15.80;99.90;;;;;;4937614;28;20479;-67
2022/11/20 12:28:33;;;;;;;2.90;2.13;;;15.40;99.90;;;;;;4941427;28;20419;-68
2022/11/20 12:31:14;;;;;;;4.97;2.33;;;14.50;99.90;;;;;;5004446;28;20450;-68
2022/11/20 12:33:42;;;;;;;5.53;2.63;;;13.90;99.90;;;;;;4941687;28;20422;-67
2022/11/20 12:36:16;;;;;;;3.93;2.53;;;13.60;99.90;;;;;;4946840;28;20437;-67
2022/11/20 12:38:56;;;;;;;3.70;1.90;;;13.00;99.90;;;;;;4938358;28;20540;-68
2022/11/20 12:47:48;;;;;;;6.53;2.50;;;12.30;99.90;;;;;;4945706;28;20477;-67
2022/11/20 12:50:31;;;;;;;3.70;1.93;;;12.50;99.90;;;;;;4940311;28;20411;-67
2022/11/20 12:53:04;;;;;;;7.37;2.00;;;12.80;99.90;;;;;;4948770;28;20457;-67
2022/11/20 12:56:03;;;;;;;3.10;2.20;;;13.20;99.90;;;;;;4941100;28;20465;-67
2022/11/20 12:59:10;;;;;;;5.20;2.43;;;13.50;99.90;;;;;;4942662;28;20517;-67
2022/11/20 13:01:50;;;;;;;4.30;2.60;;;13.60;99.90;;;;;;4941712;28;20458;-67
2022/11/20 13:04:24;;;;;;;4.13;2.53;;;13.50;99.90;;;;;;4948484;28;20488;-67
2022/11/20 13:06:51;;;;;;;3.77;2.43;;;13.40;99.90;;;;;;4941406;28;20463;-67
2022/11/20 13:09:21;;;;;;;6.43;2.53;;;13.00;99.90;;;;;;4961220;28;20419;-67
2022/11/20 13:12:10;;;;;;;3.30;2.57;;;12.90;99.90;;;;;;5006973;28;20451;-67
2022/11/20 13:15:03;;;;;;;4.73;2.93;;;13.00;99.90;;;;;;4948201;28;20462;-66
2022/11/20 13:17:32;;;;;;;3.30;2.33;;;13.00;99.90;;;;;;4946536;28;20439;-67
2022/11/20 13:19:58;;;;;;;4.73;2.10;;;12.90;99.90;;;;;;5022733;28;20451;-67
2022/11/20 13:22:54;;;;;;;2.80;2.40;;;13.00;99.90;;;;;;4948267;28;20542;-66